Baton Rouge, Louisiana
Current Conditions -  °F | °C
As of 5:53 PM on Saturday 25 Oct 2014 (Local Time) from KBTR Reporting Station
Clear Clear  
Wind Chill: 25°   Ceiling: Unl
Heat Index: 26°   Visibility: 10mi
Dew Point: 12°   Wind: 5mph
Humidity: 43%   Direction: 300°WNW
Pressure: 30.07"   Gusts: NA
Location:  30.44°N, 91.19°W
Report Text: KBTR 252253Z 30004KT 10SM CLR 25/12 A3007 RMK AO2 SLP182 T02500117
Loading
Personal Weather Stations






























Interactive Weather Map
Tropical Storm Tracking
New forecast layout! Learn more

10-Day Weather Forecast

Advertisements
Track Severe Weather on mobile